Terminal Aerodrome Forecast
Issued by NWS Sterling, VA

Current Version | Previous Version | Text Only | Print | Product List | Glossary Off
Versions: 1 2 3 4 5 6 7 8 9 10 11 12 13 14 15 16 17 18 19 20 21 22 23 24

000
FTUS41 KLWX 221600 AAB
TAFMRB
TAF AMD
KMRB 221600Z 2216/2312 VRB03KT P6SM BKN012
     FM221800 20005KT P6SM VCSH BKN035
     FM222200 26006KT P6SM SCT080
     FM230300 32005KT P6SM FEW250=

USA.gov is the U.S. government's official web portal to all federal, state and local government web resources and services.